createdAt,value
2022-09-11T04:31:01.350Z,40.60
2022-09-11T04:32:01.327Z,43.80
2022-09-11T04:33:01.300Z,40.70
2022-09-11T04:34:01.279Z,36.30
2022-09-11T04:35:01.290Z,38.70
2022-09-11T04:36:01.576Z,37.80
2022-09-11T04:37:01.239Z,36.70
2022-09-11T04:38:01.292Z,42.40
2022-09-11T04:39:01.321Z,37.90
2022-09-11T04:40:01.221Z,42.20
2022-09-11T04:41:01.180Z,37.10
2022-09-11T04:42:01.169Z,39.70
2022-09-11T04:43:01.149Z,41.10
2022-09-11T04:44:08.228Z,33.00
2022-09-11T04:45:01.212Z,43.00
2022-09-11T04:46:01.134Z,34.70
2022-09-11T04:47:01.107Z,33.30
2022-09-11T04:48:01.087Z,38.30
2022-09-11T04:49:01.075Z,38.30
2022-09-11T04:50:01.075Z,39.60
2022-09-11T04:51:01.048Z,37.60
2022-09-11T04:52:01.036Z,35.90
2022-09-11T04:53:01.062Z,35.70
2022-09-11T04:54:01.006Z,36.30
2022-09-11T04:55:01.001Z,41.70
2022-09-11T04:56:00.997Z,42.70
2022-09-11T04:57:00.968Z,42.80
2022-09-11T04:58:00.988Z,43.70
2022-09-11T04:59:00.963Z,42.20
2022-09-11T05:00:00.925Z,43.90
2022-09-11T05:01:00.969Z,43.80
2022-09-11T05:02:00.931Z,45.90
2022-09-11T05:03:00.909Z,45.30
2022-09-11T05:04:00.875Z,47.00
2022-09-11T05:05:00.867Z,47.60
2022-09-11T05:06:00.856Z,45.90
2022-09-11T05:07:00.835Z,44.20
2022-09-11T05:08:00.828Z,43.60
2022-09-11T05:09:00.823Z,46.50
2022-09-11T05:10:00.803Z,41.60
2022-09-11T05:11:00.794Z,44.40
2022-09-11T05:12:00.769Z,42.30
2022-09-11T05:13:00.763Z,44.60
2022-09-11T05:14:00.746Z,41.70
2022-09-11T05:15:00.735Z,41.50
2022-09-11T05:16:00.802Z,43.00
2022-09-11T05:17:00.716Z,37.20
2022-09-11T05:18:00.700Z,38.20
2022-09-11T05:19:00.685Z,46.60
2022-09-11T05:20:00.676Z,42.00
2022-09-11T05:21:00.674Z,45.30
2022-09-11T05:22:00.652Z,38.90
2022-09-11T05:23:00.634Z,42.20
2022-09-11T05:24:00.615Z,39.20
2022-09-11T05:25:00.614Z,40.90
2022-09-11T05:26:00.625Z,46.10
2022-09-11T05:27:00.583Z,45.70
2022-09-11T05:28:00.563Z,45.30
2022-09-11T05:29:00.554Z,47.20
2022-09-11T05:30:00.543Z,44.20
2022-09-11T05:31:00.545Z,50.00
2022-09-11T05:32:00.524Z,40.10
2022-09-11T05:33:00.503Z,46.10
2022-09-11T05:34:00.652Z,45.70
2022-09-11T05:35:00.474Z,39.80
2022-09-11T05:36:00.472Z,44.90
2022-09-11T05:37:00.456Z,38.80
2022-09-11T05:38:00.434Z,43.30
2022-09-11T05:39:00.424Z,47.20
2022-09-11T05:40:00.604Z,42.90
2022-09-11T05:41:00.422Z,41.00
2022-09-11T05:42:00.384Z,42.90
2022-09-11T05:43:00.373Z,46.60
2022-09-11T05:44:00.357Z,44.70
2022-09-11T05:45:00.354Z,42.30
2022-09-11T05:46:00.408Z,40.70
2022-09-11T05:47:00.323Z,40.50
2022-09-11T05:48:00.312Z,41.70
2022-09-11T05:49:00.301Z,42.40
2022-09-11T05:50:00.293Z,41.50
2022-09-11T05:51:00.293Z,37.50
2022-09-11T05:52:00.251Z,42.50
2022-09-11T05:53:00.356Z,45.20
2022-09-11T05:54:00.233Z,37.10
2022-09-11T05:55:00.212Z,39.70
2022-09-11T05:56:00.202Z,38.20
2022-09-11T05:57:02.590Z,40.10
2022-09-11T05:58:00.180Z,40.90
2022-09-11T05:59:00.163Z,34.80
2022-09-11T06:00:00.167Z,34.20
2022-09-11T06:01:00.246Z,34.30
2022-09-11T06:02:00.186Z,32.00
2022-09-11T06:03:00.112Z,32.70
2022-09-11T06:04:00.103Z,27.80
2022-09-11T06:05:00.095Z,32.70
2022-09-11T06:06:00.073Z,33.30
2022-09-11T06:07:00.122Z,31.10
2022-09-11T06:08:00.041Z,28.30
2022-09-11T06:09:00.063Z,35.50
2022-09-11T06:10:03.225Z,31.30
2022-09-11T06:11:00.012Z,33.70
2022-09-11T06:12:00.002Z,32.20
2022-09-11T06:12:59.981Z,30.80
2022-09-11T06:13:59.981Z,33.00
2022-09-11T06:14:59.951Z,33.40
2022-09-11T06:15:59.941Z,32.90
2022-09-11T06:16:59.991Z,33.00
2022-09-11T06:17:59.933Z,30.90
2022-09-11T06:19:00.371Z,29.70
2022-09-11T06:19:59.882Z,33.80
2022-09-11T06:20:59.880Z,30.40
2022-09-11T06:21:59.870Z,32.20
2022-09-11T06:22:59.882Z,27.60
2022-09-11T06:23:59.832Z,28.10
2022-09-11T06:24:59.830Z,27.20
2022-09-11T06:25:59.830Z,27.30
2022-09-11T06:26:59.803Z,29.80
2022-09-11T06:27:59.780Z,29.50
2022-09-11T06:28:59.778Z,30.50
2022-09-11T06:29:59.750Z,29.80
2022-09-11T06:30:59.799Z,26.40
2022-09-11T06:31:59.730Z,31.60
2022-09-11T06:32:59.771Z,25.80
2022-09-11T06:33:59.699Z,29.00
2022-09-11T06:34:59.691Z,28.20
2022-09-11T06:35:59.663Z,27.50
2022-09-11T06:36:59.690Z,29.70
2022-09-11T06:37:59.640Z,30.00
2022-09-11T06:38:59.634Z,29.70
2022-09-11T06:39:59.644Z,29.90
2022-09-11T06:40:59.610Z,28.20
2022-09-11T06:41:59.603Z,31.20
2022-09-11T06:42:59.632Z,26.50
2022-09-11T06:43:59.560Z,30.30
2022-09-11T06:44:59.548Z,28.30
2022-09-11T06:45:59.547Z,28.80
2022-09-11T06:46:59.532Z,31.20
2022-09-11T06:47:59.510Z,28.80
2022-09-11T06:48:59.499Z,32.30
2022-09-11T06:49:59.508Z,29.00
2022-09-11T06:50:59.480Z,30.10
2022-09-11T06:51:59.489Z,30.90
2022-09-11T06:52:59.439Z,27.70
2022-09-11T06:53:59.419Z,30.80
2022-09-11T06:54:59.409Z,31.70
2022-09-11T06:55:59.442Z,27.10
2022-09-11T06:56:59.400Z,31.10
2022-09-11T06:57:59.374Z,30.60
2022-09-11T06:58:59.361Z,30.80
2022-09-11T06:59:59.339Z,28.80
2022-09-11T07:00:59.418Z,29.80
2022-09-11T07:01:59.411Z,30.40
2022-09-11T07:02:59.308Z,28.80
2022-09-11T07:03:59.319Z,27.90
2022-09-11T07:04:59.278Z,31.30
2022-09-11T07:05:59.258Z,30.20
2022-09-11T07:06:59.301Z,30.20
2022-09-11T07:07:59.228Z,31.30
2022-09-11T07:08:59.229Z,30.70
2022-09-11T07:09:59.206Z,29.90
2022-09-11T07:10:59.228Z,32.60
2022-09-11T07:11:59.191Z,29.90
2022-09-11T07:12:59.176Z,31.90
2022-09-11T07:13:59.148Z,31.30
2022-09-11T07:14:59.164Z,32.30
2022-09-11T07:15:59.180Z,28.50
2022-09-11T07:16:59.108Z,29.00
2022-09-11T07:17:59.106Z,29.70
2022-09-11T07:18:59.087Z,28.40
2022-09-11T07:19:59.069Z,29.90
2022-09-11T07:20:59.055Z,30.20
2022-09-11T07:21:59.051Z,29.00
2022-09-11T07:22:59.028Z,28.20
2022-09-11T07:23:59.017Z,29.00
2022-09-11T07:24:58.997Z,28.00
2022-09-11T07:25:59.017Z,29.10
2022-09-11T07:26:58.987Z,29.00
2022-09-11T07:27:58.958Z,16.90
2022-09-11T07:28:58.955Z,21.40
2022-09-11T07:29:58.936Z,25.80
2022-09-11T07:30:58.953Z,20.40
2022-09-11T07:31:58.922Z,21.30
2022-09-11T07:32:58.895Z,19.10
2022-09-11T07:33:58.899Z,18.90
2022-09-11T07:34:58.867Z,20.30
2022-09-11T07:35:58.857Z,22.40
2022-09-11T07:36:58.857Z,23.80
2022-09-11T07:37:58.835Z,19.40
2022-09-11T07:38:58.814Z,24.30
2022-09-11T07:39:58.836Z,23.10
2022-09-11T07:40:58.787Z,22.60
2022-09-11T07:41:58.787Z,23.60
2022-09-11T07:42:58.757Z,24.40
2022-09-11T07:43:58.760Z,24.00
2022-09-11T07:44:58.736Z,23.20
2022-09-11T07:45:58.772Z,23.20
2022-09-11T07:46:58.726Z,22.80
2022-09-11T07:47:58.712Z,24.20
2022-09-11T07:48:58.692Z,24.20
2022-09-11T07:49:58.674Z,24.60
2022-09-11T07:50:58.659Z,23.20
2022-09-11T07:51:58.655Z,22.80
2022-09-11T07:52:58.627Z,23.40
2022-09-11T07:53:58.616Z,25.80
2022-09-11T07:54:58.608Z,25.30
2022-09-11T07:55:58.588Z,24.40
2022-09-11T07:56:58.590Z,26.60
2022-09-11T07:57:58.558Z,26.10
2022-09-11T07:58:58.555Z,25.60
2022-09-11T07:59:58.537Z,25.30
2022-09-11T08:00:58.547Z,24.40
2022-09-11T08:01:58.546Z,23.70
2022-09-11T08:02:58.496Z,21.10
2022-09-11T08:03:58.528Z,19.70
2022-09-11T08:04:58.478Z,20.80
2022-09-11T08:05:58.466Z,21.40
2022-09-11T08:06:58.464Z,21.30
2022-09-11T08:07:58.426Z,19.50
2022-09-11T08:08:58.416Z,22.90
2022-09-11T08:10:23.266Z,20.30
2022-09-11T08:10:59.426Z,22.80
2022-09-11T08:11:58.403Z,23.30
2022-09-11T08:13:00.032Z,23.80
2022-09-11T08:13:58.357Z,25.90
2022-09-11T08:14:58.347Z,27.60
2022-09-11T08:15:58.362Z,25.70
2022-09-11T08:16:58.325Z,24.80
2022-09-11T08:17:58.295Z,23.00
2022-09-11T08:18:58.294Z,23.10
2022-09-11T08:19:58.266Z,24.60
2022-09-11T08:20:58.266Z,22.00
2022-09-11T08:21:58.263Z,22.90
2022-09-11T08:22:58.234Z,23.70
2022-09-11T08:23:58.215Z,25.30
2022-09-11T08:24:58.205Z,22.00
2022-09-11T08:25:58.196Z,22.10
2022-09-11T08:26:58.196Z,23.10
2022-09-11T08:27:58.164Z,22.20
2022-09-11T08:28:58.186Z,21.90
2022-09-11T08:29:58.256Z,21.40
2022-09-11T08:30:58.160Z,20.90
2022-09-11T08:32:02.071Z,20.80
2022-09-11T08:32:58.100Z,22.20
2022-09-11T08:33:58.086Z,23.00
2022-09-11T08:34:58.074Z,20.30
2022-09-11T08:35:58.055Z,21.50
2022-09-11T08:36:58.057Z,21.30
2022-09-11T08:37:58.035Z,20.60
2022-09-11T08:38:58.025Z,20.80
2022-09-11T08:39:58.031Z,20.70
2022-09-11T08:40:57.995Z,20.60
2022-09-11T08:41:57.975Z,20.30
2022-09-11T08:42:57.978Z,23.70
2022-09-11T08:43:57.953Z,22.10
2022-09-11T08:44:57.946Z,21.20
2022-09-11T08:45:58.040Z,21.80
2022-09-11T08:46:57.916Z,22.70
2022-09-11T08:47:57.906Z,22.20
2022-09-11T08:48:57.885Z,22.90
2022-09-11T08:49:57.873Z,21.90
2022-09-11T08:50:57.867Z,22.50
2022-09-11T08:51:57.852Z,23.80
2022-09-11T08:52:57.855Z,22.60
2022-09-11T08:53:57.857Z,23.50
2022-09-11T08:54:57.820Z,21.70
2022-09-11T08:55:57.788Z,22.40
2022-09-11T08:56:57.796Z,23.40
2022-09-11T08:57:57.774Z,22.40
2022-09-11T08:58:57.755Z,22.40
2022-09-11T08:59:57.735Z,22.60
2022-09-11T09:00:57.773Z,23.30
2022-09-11T09:01:57.790Z,22.00
2022-09-11T09:02:57.714Z,21.90
2022-09-11T09:03:57.685Z,22.30
2022-09-11T09:04:57.685Z,23.30
2022-09-11T09:05:57.676Z,21.60
2022-09-11T09:06:57.656Z,20.20
2022-09-11T09:07:57.645Z,20.90
2022-09-11T09:08:57.625Z,23.00
2022-09-11T09:09:57.624Z,20.00
2022-09-11T09:10:57.605Z,20.90
2022-09-11T09:11:57.585Z,21.50
2022-09-11T09:12:57.664Z,20.60
2022-09-11T09:13:57.554Z,22.10
2022-09-11T09:14:57.545Z,21.10
2022-09-11T09:15:57.558Z,21.70
2022-09-11T09:16:57.529Z,22.50
2022-09-11T09:17:57.516Z,21.80
2022-09-11T09:18:57.514Z,20.80
2022-09-11T09:19:57.475Z,22.10
2022-09-11T09:20:57.528Z,22.00
2022-09-11T09:21:57.496Z,23.00
2022-09-11T09:22:57.457Z,23.60
2022-09-11T09:23:57.426Z,22.30
2022-09-11T09:24:57.419Z,27.40
2022-09-11T09:25:57.407Z,23.80
2022-09-11T09:26:57.405Z,21.90
2022-09-11T09:27:57.413Z,22.90
2022-09-11T09:28:57.433Z,23.10
2022-09-11T09:29:57.344Z,24.60
2022-09-11T09:30:57.425Z,22.00
2022-09-11T09:31:57.324Z,24.00
2022-09-11T09:32:57.305Z,21.80
2022-09-11T09:33:57.285Z,23.40
2022-09-11T09:34:57.286Z,21.50
2022-09-11T09:35:57.261Z,21.60
2022-09-11T09:36:57.267Z,22.30
2022-09-11T09:37:57.296Z,22.30
2022-09-11T09:38:57.224Z,21.30
2022-09-11T09:39:57.260Z,22.20
2022-09-11T09:40:57.194Z,23.30
2022-09-11T09:41:57.195Z,23.40
2022-09-11T09:42:57.186Z,21.90
2022-09-11T09:43:57.155Z,22.80
2022-09-11T09:44:57.144Z,23.70
2022-09-11T09:45:57.198Z,22.30
2022-09-11T09:46:57.117Z,22.60
2022-09-11T09:47:57.144Z,21.60
2022-09-11T09:48:57.093Z,22.80
2022-09-11T09:49:57.075Z,21.10
2022-09-11T09:50:57.065Z,21.20
2022-09-11T09:51:59.860Z,21.30
2022-09-11T09:52:58.054Z,20.60
2022-09-11T09:53:57.023Z,20.30
2022-09-11T09:54:57.053Z,19.20
2022-09-11T09:55:56.995Z,20.90
2022-09-11T09:56:57.003Z,20.30
2022-09-11T09:57:56.977Z,20.40
2022-09-11T09:58:56.955Z,18.80
2022-09-11T09:59:56.936Z,19.30
2022-09-11T10:00:56.937Z,19.90
2022-09-11T10:01:56.999Z,19.80
2022-09-11T10:02:56.923Z,18.10
2022-09-11T10:03:56.894Z,18.80
2022-09-11T10:04:56.874Z,18.10
2022-09-11T10:05:56.867Z,18.80
2022-09-11T10:06:56.878Z,19.80
2022-09-11T10:07:56.838Z,19.30
2022-09-11T10:09:00.174Z,19.30
2022-09-11T10:09:57.815Z,19.00
2022-09-11T10:10:56.806Z,19.90
2022-09-11T10:11:56.784Z,18.90
2022-09-11T10:13:13.051Z,20.70
2022-09-11T10:13:57.775Z,19.80
2022-09-11T10:14:56.754Z,19.20
2022-09-11T10:15:56.779Z,19.60
2022-09-11T10:16:56.743Z,18.30
2022-09-11T10:17:56.723Z,17.10
2022-09-11T10:18:56.694Z,17.10
2022-09-11T10:19:56.695Z,17.60
2022-09-11T10:20:59.640Z,19.80
2022-09-11T10:21:56.654Z,19.90
2022-09-11T10:22:56.688Z,19.90
2022-09-11T10:23:56.641Z,18.70
2022-09-11T10:24:56.623Z,18.40
2022-09-11T10:25:56.606Z,17.90
2022-09-11T10:26:56.594Z,18.80
2022-09-11T10:27:56.592Z,16.70
2022-09-11T10:28:56.565Z,17.10
2022-09-11T10:29:56.547Z,17.50
2022-09-11T10:30:56.563Z,18.70
2022-09-11T10:31:56.524Z,16.90
2022-09-11T10:33:00.036Z,16.60
2022-09-11T10:33:57.674Z,17.40
2022-09-11T10:34:56.484Z,17.20
2022-09-11T10:35:56.473Z,17.60
2022-09-11T10:36:56.466Z,18.30
2022-09-11T10:37:56.455Z,17.20
2022-09-11T10:38:56.435Z,17.90
2022-09-11T10:39:56.430Z,18.00
2022-09-11T10:40:56.406Z,17.80
2022-09-11T10:41:56.399Z,17.60
2022-09-11T10:42:56.394Z,18.30
2022-09-11T10:44:47.600Z,15.40
2022-09-11T10:45:47.584Z,16.10
2022-09-11T10:46:47.558Z,16.20
2022-09-11T10:47:47.540Z,15.70
2022-09-11T10:48:47.527Z,14.40
2022-09-11T10:49:47.510Z,13.70
2022-09-11T10:50:47.501Z,13.30
2022-09-11T10:51:47.761Z,14.50
2022-09-11T10:52:47.483Z,14.40
2022-09-11T10:53:47.456Z,13.80
2022-09-11T10:54:47.449Z,12.60
2022-09-11T10:55:47.430Z,13.70
2022-09-11T10:56:47.444Z,13.40
2022-09-11T10:57:47.516Z,15.70
2022-09-11T10:58:47.409Z,14.20
2022-09-11T10:59:47.397Z,13.40
2022-09-11T11:00:47.439Z,14.30
2022-09-11T11:01:47.433Z,13.60
2022-09-11T11:02:47.364Z,13.40
2022-09-11T11:03:47.330Z,13.70
2022-09-11T11:04:47.344Z,12.10
2022-09-11T11:05:47.341Z,12.50
2022-09-11T11:06:47.290Z,13.40
2022-09-11T11:07:47.290Z,11.80
2022-09-11T11:08:47.272Z,12.20
2022-09-11T11:09:47.290Z,11.50
2022-09-11T11:10:47.259Z,11.90
2022-09-11T11:11:47.238Z,10.90
2022-09-11T11:12:47.249Z,10.40
2022-09-11T11:13:47.391Z,11.10
2022-09-11T11:14:47.190Z,12.00
2022-09-11T11:15:47.331Z,10.60
2022-09-11T11:16:47.312Z,10.20
2022-09-11T11:17:47.161Z,9.50
2022-09-11T11:18:47.270Z,9.50
2022-09-11T11:19:47.139Z,9.30
2022-09-11T11:20:47.121Z,9.70
2022-09-11T11:21:47.101Z,8.70
2022-09-11T11:22:47.101Z,9.20
2022-09-11T11:23:47.269Z,9.90
2022-09-11T11:24:47.063Z,9.70
2022-09-11T11:25:47.054Z,9.70
2022-09-11T11:26:47.050Z,9.80
2022-09-11T11:27:47.033Z,9.40
2022-09-11T11:28:47.033Z,10.50
2022-09-11T11:29:46.995Z,10.10
2022-09-11T11:30:47.038Z,11.00
2022-09-11T11:31:46.970Z,11.80
2022-09-11T11:32:46.963Z,12.50
2022-09-11T11:33:46.968Z,10.50
2022-09-11T11:34:46.962Z,10.20
2022-09-11T11:35:46.922Z,10.10
2022-09-11T11:36:46.912Z,10.30
2022-09-11T11:37:46.904Z,10.40
2022-09-11T11:38:47.893Z,10.50
2022-09-11T11:39:47.045Z,10.30
2022-09-11T11:40:46.854Z,10.00
2022-09-11T11:41:46.842Z,9.70
2022-09-11T11:42:46.849Z,9.90
2022-09-11T11:43:46.847Z,9.20
2022-09-11T11:44:46.823Z,8.90
2022-09-11T11:45:46.847Z,9.60
2022-09-11T11:46:46.817Z,9.60
2022-09-11T11:47:46.764Z,9.50
2022-09-11T11:48:46.813Z,10.40
2022-09-11T11:49:46.764Z,10.50
2022-09-11T11:50:46.735Z,10.40
2022-09-11T11:51:46.714Z,11.60
2022-09-11T11:52:46.704Z,10.00
2022-09-11T11:53:46.695Z,10.50
2022-09-11T11:54:46.682Z,9.70
2022-09-11T11:55:46.664Z,9.70
2022-09-11T11:56:46.655Z,9.60
2022-09-11T11:57:46.640Z,9.50
2022-09-11T11:58:46.644Z,10.10
2022-09-11T11:59:46.606Z,9.90
2022-09-11T12:00:46.634Z,9.90
2022-09-11T12:01:46.633Z,9.60
2022-09-11T12:02:46.575Z,9.30
2022-09-11T12:03:46.615Z,9.00
2022-09-11T12:04:46.566Z,9.20
2022-09-11T12:05:46.566Z,8.50
2022-09-11T12:06:46.543Z,9.50
2022-09-11T12:07:46.535Z,9.70
2022-09-11T12:08:46.515Z,10.30
2022-09-11T12:09:46.487Z,10.60
2022-09-11T12:10:46.476Z,10.50
2022-09-11T12:11:46.456Z,10.80
2022-09-11T12:12:46.445Z,10.30
2022-09-11T12:13:46.447Z,10.90
2022-09-11T12:14:46.426Z,10.80
2022-09-11T12:15:46.491Z,10.90
2022-09-11T12:16:46.396Z,10.50
2022-09-11T12:17:46.376Z,10.00
2022-09-11T12:18:46.386Z,11.30
2022-09-11T12:19:46.356Z,10.60
2022-09-11T12:20:46.367Z,9.50
2022-09-11T12:21:46.346Z,8.20
2022-09-11T12:22:46.326Z,9.30
2022-09-11T12:23:46.316Z,8.70
2022-09-11T12:24:46.317Z,9.10
2022-09-11T12:25:46.276Z,10.40
2022-09-11T12:26:46.266Z,10.30
2022-09-11T12:27:46.310Z,9.80
2022-09-11T12:28:46.257Z,8.90
2022-09-11T12:29:46.227Z,8.80
2022-09-11T12:30:46.207Z,9.20
2022-09-11T12:31:46.207Z,9.50
2022-09-11T12:32:46.196Z,8.40
2022-09-11T12:33:46.202Z,9.90
2022-09-11T12:34:46.160Z,9.60
2022-09-11T12:35:46.156Z,9.40
2022-09-11T12:36:46.137Z,8.70
2022-09-11T12:37:46.130Z,9.50
2022-09-11T12:38:46.137Z,10.40
2022-09-11T12:39:46.216Z,10.60
2022-09-11T12:40:46.098Z,10.90
2022-09-11T12:41:46.078Z,10.80
2022-09-11T12:42:46.058Z,10.40
2022-09-11T12:43:46.068Z,9.40
2022-09-11T12:44:46.037Z,9.30
2022-09-11T12:45:46.115Z,8.40
2022-09-11T12:46:46.034Z,8.70
2022-09-11T12:47:45.999Z,9.00
2022-09-11T12:48:56.191Z,8.40
2022-09-11T12:49:46.977Z,9.40
2022-09-11T12:50:45.959Z,8.80
2022-09-11T12:51:46.008Z,8.60
2022-09-11T12:52:45.931Z,8.50
2022-09-11T12:53:47.078Z,8.30
2022-09-11T12:54:45.899Z,8.80
2022-09-11T12:55:45.899Z,8.50
2022-09-11T12:56:45.879Z,8.40
2022-09-11T12:57:45.879Z,9.00
2022-09-11T12:58:45.879Z,8.50
2022-09-11T12:59:45.839Z,8.70
2022-09-11T13:00:45.829Z,8.70
2022-09-11T13:01:45.894Z,8.70
2022-09-11T13:02:45.790Z,9.00
2022-09-11T13:03:45.800Z,7.90
2022-09-11T13:04:45.779Z,8.90
2022-09-11T13:05:45.780Z,7.80
2022-09-11T13:06:45.870Z,8.20
2022-09-11T13:07:45.740Z,7.80
2022-09-11T13:08:45.738Z,7.80
2022-09-11T13:09:45.710Z,9.10
2022-09-11T13:10:45.691Z,8.10
2022-09-11T13:11:45.690Z,8.50
2022-09-11T13:12:45.671Z,8.30
2022-09-11T13:13:45.679Z,8.40
2022-09-11T13:14:45.649Z,8.30
2022-09-11T13:15:45.693Z,8.10
2022-09-11T13:16:45.661Z,7.90
2022-09-11T13:17:45.611Z,7.30
2022-09-11T13:18:45.614Z,7.60
2022-09-11T13:19:45.594Z,7.80
2022-09-11T13:20:45.581Z,7.50
2022-09-11T13:21:45.579Z,7.10
2022-09-11T13:22:48.704Z,7.70
2022-09-11T13:23:45.552Z,8.20
2022-09-11T13:24:45.562Z,8.10
2022-09-11T13:25:45.511Z,8.70
2022-09-11T13:26:45.525Z,8.80
2022-09-11T13:27:45.481Z,9.00
2022-09-11T13:28:45.470Z,8.40
2022-09-11T13:29:45.471Z,8.20
2022-09-11T13:30:45.527Z,8.30
2022-09-11T13:31:45.476Z,8.70
2022-09-11T13:32:45.423Z,9.20
2022-09-11T13:33:45.413Z,8.30
2022-09-11T13:34:45.522Z,7.90
2022-09-11T13:35:45.433Z,7.90
2022-09-11T13:36:45.391Z,8.60
2022-09-11T13:37:45.382Z,8.20
2022-09-11T13:38:45.342Z,7.90
2022-09-11T13:39:45.475Z,8.60
2022-09-11T13:40:45.322Z,7.90
2022-09-11T13:41:45.304Z,8.10
2022-09-11T13:42:45.290Z,8.00
2022-09-11T13:43:45.293Z,8.00
2022-09-11T13:44:45.282Z,8.20
2022-09-11T13:45:45.280Z,8.70
2022-09-11T13:46:45.254Z,9.20
2022-09-11T13:47:45.222Z,8.30
2022-09-11T13:48:45.222Z,8.40
2022-09-11T13:49:45.213Z,8.70
2022-09-11T13:50:45.194Z,8.20
2022-09-11T13:51:45.192Z,8.80
2022-09-11T13:52:45.209Z,9.30
2022-09-11T13:53:45.251Z,8.50
2022-09-11T13:54:45.152Z,9.10
2022-09-11T13:55:45.131Z,8.40
2022-09-11T13:56:45.117Z,8.40
2022-09-11T13:57:45.213Z,8.80
2022-09-11T13:58:45.096Z,8.40
2022-09-11T13:59:45.085Z,8.30
2022-09-11T14:00:45.070Z,8.70
2022-09-11T14:01:45.138Z,8.70
2022-09-11T14:02:45.078Z,10.20
2022-09-11T14:03:45.022Z,8.40
2022-09-11T14:04:45.032Z,10.40
2022-09-11T14:05:44.994Z,8.40
2022-09-11T14:06:44.984Z,8.50
2022-09-11T14:07:44.975Z,8.40
2022-09-11T14:08:44.983Z,8.30
2022-09-11T14:09:44.943Z,7.70
2022-09-11T14:10:44.963Z,7.70
2022-09-11T14:11:44.942Z,7.40
2022-09-11T14:12:44.923Z,7.60
2022-09-11T14:13:45.040Z,7.30
2022-09-11T14:14:44.882Z,6.70
2022-09-11T14:15:44.904Z,7.70
2022-09-11T14:16:44.852Z,7.50
2022-09-11T14:17:44.833Z,7.70
2022-09-11T14:18:44.824Z,7.40
2022-09-11T14:19:44.803Z,6.80
2022-09-11T14:20:44.852Z,6.70
2022-09-11T14:21:44.783Z,6.50
2022-09-11T14:22:44.773Z,6.60
2022-09-11T14:23:44.922Z,7.00
2022-09-11T14:24:44.753Z,6.50
2022-09-11T14:25:44.742Z,6.00
2022-09-11T14:26:44.736Z,5.90
2022-09-11T14:27:44.723Z,6.40
2022-09-11T14:28:44.694Z,5.90
2022-09-11T14:29:44.682Z,5.90
2022-09-11T14:30:44.684Z,6.30
2022-09-11T14:31:44.652Z,7.00
2022-09-11T14:32:44.666Z,7.00
2022-09-11T14:33:44.735Z,7.30
2022-09-11T14:34:44.634Z,7.60
2022-09-11T14:35:44.632Z,7.20
2022-09-11T14:36:44.595Z,7.10
2022-09-11T14:37:44.583Z,6.50
2022-09-11T14:38:44.657Z,6.00
2022-09-11T14:39:44.616Z,6.60
2022-09-11T14:40:44.564Z,6.80
2022-09-11T14:41:44.526Z,7.00
2022-09-11T14:42:44.516Z,6.10
2022-09-11T14:43:48.858Z,6.80
2022-09-11T14:44:45.526Z,6.20
2022-09-11T14:45:44.486Z,6.40
2022-09-11T14:46:44.519Z,6.70
2022-09-11T14:47:44.460Z,6.20
2022-09-11T14:48:44.446Z,6.50
2022-09-11T14:49:44.458Z,6.00
2022-09-11T14:50:44.447Z,5.80
2022-09-11T14:51:44.407Z,5.70
2022-09-11T14:52:44.401Z,5.80
2022-09-11T14:53:44.563Z,6.10
2022-09-11T14:54:44.378Z,5.80
2022-09-11T14:55:44.358Z,5.60
2022-09-11T14:56:44.355Z,5.20
2022-09-11T14:57:44.346Z,5.60
2022-09-11T14:58:44.328Z,6.00
2022-09-11T14:59:44.309Z,5.40
2022-09-11T15:00:44.318Z,6.10
2022-09-11T15:01:44.310Z,5.70
2022-09-11T15:02:44.280Z,5.90
2022-09-11T15:03:44.470Z,5.50
2022-09-11T15:04:44.267Z,5.00
2022-09-11T15:05:44.240Z,5.90
2022-09-11T15:06:44.279Z,5.60
2022-09-11T15:07:44.211Z,5.80
2022-09-11T15:08:44.220Z,5.50
2022-09-11T15:09:44.199Z,5.30
2022-09-11T15:10:44.182Z,4.80
2022-09-11T15:11:44.161Z,5.10
2022-09-11T15:12:44.171Z,4.70
2022-09-11T15:14:03.994Z,5.00
2022-09-11T15:14:56.572Z,5.00
2022-09-11T15:15:45.126Z,5.80
2022-09-11T15:16:44.111Z,5.50
2022-09-11T15:17:44.091Z,5.50
2022-09-11T15:18:44.080Z,5.80
2022-09-11T15:19:44.192Z,5.00
2022-09-11T15:20:44.053Z,5.50
2022-09-11T15:21:44.082Z,4.80
2022-09-11T15:22:44.034Z,5.00
2022-09-11T15:23:44.096Z,5.00
2022-09-11T15:24:44.033Z,5.00
2022-09-11T15:25:44.001Z,5.10
2022-09-11T15:26:44.004Z,5.60
2022-09-11T15:27:43.964Z,5.20
2022-09-11T15:28:43.944Z,5.10
2022-09-11T15:29:43.950Z,4.70
2022-09-11T15:30:43.926Z,5.10
2022-09-11T15:31:43.913Z,5.00
2022-09-11T15:32:43.894Z,5.40
2022-09-11T15:33:43.962Z,4.60
2022-09-11T15:34:43.891Z,4.90
2022-09-11T15:35:43.854Z,5.60
2022-09-11T15:36:43.856Z,5.00
2022-09-11T15:37:43.843Z,5.40
2022-09-11T15:38:43.835Z,5.10
2022-09-11T15:39:43.843Z,5.10
2022-09-11T15:40:43.805Z,5.50
2022-09-11T15:41:43.793Z,5.40
2022-09-11T15:42:43.785Z,4.90
2022-09-11T15:43:43.842Z,4.70
2022-09-11T15:44:43.816Z,4.70
2022-09-11T15:45:43.799Z,4.60
2022-09-11T15:46:43.729Z,5.00
2022-09-11T15:47:43.717Z,4.50
2022-09-11T15:48:43.707Z,4.50
2022-09-11T15:49:43.714Z,5.10
2022-09-11T15:50:43.679Z,5.10
2022-09-11T15:51:43.665Z,4.80
2022-09-11T15:52:43.657Z,4.20
2022-09-11T15:53:43.718Z,4.50
2022-09-11T15:54:43.668Z,4.40
2022-09-11T15:55:43.618Z,5.00
2022-09-11T15:56:43.618Z,4.50
2022-09-11T15:57:43.598Z,4.70
2022-09-11T15:58:43.590Z,5.00
2022-09-11T15:59:43.587Z,4.70
2022-09-11T16:00:43.593Z,5.00
2022-09-11T16:01:43.581Z,5.10
2022-09-11T16:02:43.539Z,4.60
2022-09-11T16:03:43.582Z,4.60
2022-09-11T16:04:43.521Z,4.80
2022-09-11T16:05:43.520Z,4.50
2022-09-11T16:06:43.483Z,4.60
2022-09-11T16:07:43.469Z,4.90
2022-09-11T16:08:43.459Z,5.30
2022-09-11T16:09:43.460Z,4.50
2022-09-11T16:10:43.440Z,4.20
2022-09-11T16:11:43.440Z,4.30
2022-09-11T16:12:43.412Z,4.10
2022-09-11T16:13:43.482Z,5.20
2022-09-11T16:14:43.411Z,4.50
2022-09-11T16:15:43.417Z,4.60
2022-09-11T16:16:43.370Z,4.50
2022-09-11T16:17:43.353Z,4.20
2022-09-11T16:18:43.351Z,4.40
2022-09-11T16:19:43.332Z,4.40
2022-09-11T16:20:43.313Z,4.00
2022-09-11T16:21:43.293Z,4.00
2022-09-11T16:22:43.282Z,3.90
2022-09-11T16:23:43.270Z,4.30
2022-09-11T16:24:43.273Z,4.00
2022-09-11T16:25:43.253Z,4.40
2022-09-11T16:26:43.244Z,4.20
2022-09-11T16:27:43.233Z,4.60
2022-09-11T16:28:43.220Z,4.50
2022-09-11T16:30:47.422Z,4.40
2022-09-11T16:31:44.219Z,4.00
2022-09-11T16:32:43.184Z,3.90
2022-09-11T16:33:43.201Z,5.10
2022-09-11T16:34:43.192Z,4.00
2022-09-11T16:35:43.150Z,3.90
2022-09-11T16:36:43.123Z,4.40
2022-09-11T16:37:43.103Z,4.60
2022-09-11T16:38:43.114Z,4.40
2022-09-11T16:39:43.145Z,4.10
2022-09-11T16:40:43.114Z,4.50
2022-09-11T16:41:43.046Z,4.30
2022-09-11T16:42:43.035Z,4.00
2022-09-11T16:43:43.036Z,4.30
2022-09-11T16:44:43.014Z,4.40
2022-09-11T16:45:43.053Z,4.30
2022-09-11T16:46:42.995Z,4.10
2022-09-11T16:47:42.975Z,4.20
2022-09-11T16:48:42.965Z,3.90
2022-09-11T16:50:43.945Z,4.00
2022-09-11T16:51:42.933Z,4.00
2022-09-11T16:52:42.905Z,4.00
2022-09-11T16:53:42.897Z,4.10
2022-09-11T16:54:46.983Z,4.00
2022-09-11T16:55:43.878Z,4.20
2022-09-11T16:56:46.105Z,4.20
2022-09-11T16:57:42.845Z,3.90
2022-09-11T16:58:42.840Z,3.60
2022-09-11T16:59:42.815Z,3.80
2022-09-11T17:00:42.852Z,4.20
2022-09-11T17:01:42.830Z,4.00
2022-09-11T17:02:42.779Z,4.50
2022-09-11T17:03:42.769Z,4.00
2022-09-11T17:04:42.746Z,4.40
2022-09-11T17:05:42.749Z,5.00
2022-09-11T17:06:42.744Z,4.20
2022-09-11T17:07:42.716Z,4.40
2022-09-11T17:08:42.790Z,4.00
2022-09-11T17:09:42.686Z,4.80
2022-09-11T17:10:42.686Z,4.20
2022-09-11T17:11:42.706Z,4.60
2022-09-11T17:12:42.657Z,4.60
2022-09-11T17:13:42.634Z,4.40
2022-09-11T17:14:42.627Z,4.20
2022-09-11T17:15:42.708Z,4.70
2022-09-11T17:16:42.597Z,4.00
2022-09-11T17:17:42.586Z,4.10
2022-09-11T17:18:42.602Z,3.80
2022-09-11T17:19:42.558Z,4.30
2022-09-11T17:20:42.557Z,4.40
2022-09-11T17:21:42.526Z,5.70
2022-09-11T17:22:42.521Z,4.50
2022-09-11T17:23:42.505Z,4.30
2022-09-11T17:24:42.511Z,4.50
2022-09-11T17:25:42.499Z,4.30
2022-09-11T17:26:42.475Z,4.50
2022-09-11T17:27:42.467Z,4.50
2022-09-11T17:28:42.571Z,4.00
2022-09-11T17:29:44.535Z,4.20
2022-09-11T17:30:42.427Z,3.80
2022-09-11T17:31:42.440Z,4.80
2022-09-11T17:32:42.397Z,3.90
2022-09-11T17:33:42.559Z,3.70
2022-09-11T17:34:42.367Z,4.10
2022-09-11T17:35:42.370Z,3.90
2022-09-11T17:36:42.346Z,4.30